createdAt,value
2019-04-26T00:02:21.141Z,0.00
2019-04-26T00:17:22.333Z,0.00
2019-04-26T00:32:22.474Z,0.00
2019-04-26T00:47:23.323Z,0.00
2019-04-26T01:02:25.083Z,0.00
2019-04-26T01:17:25.166Z,0.00
2019-04-26T01:32:26.124Z,0.00
2019-04-26T01:47:26.509Z,0.00
2019-04-26T02:02:27.689Z,0.00
2019-04-26T02:17:27.831Z,0.00
2019-04-26T02:32:29.427Z,0.00
2019-04-26T02:47:33.170Z,0.00
2019-04-26T03:02:59.385Z,0.00
2019-04-26T07:11:03.043Z,1305.00
2019-04-26T07:26:06.445Z,1749.38
2019-04-26T07:41:07.232Z,1344.38
2019-04-26T07:56:07.392Z,2210.62
2019-04-26T08:11:08.630Z,1203.75
2019-04-26T08:26:09.173Z,1558.12
2019-04-26T08:41:09.877Z,2424.38
2019-04-26T08:56:11.661Z,1108.12
2019-04-26T09:11:23.738Z,1057.50
2019-04-26T09:26:16.863Z,1468.12
2019-04-26T09:41:17.019Z,1665.00
2019-04-26T09:56:17.246Z,1558.12
2019-04-26T10:11:17.423Z,3290.62
2019-04-26T10:26:17.818Z,2722.50
2019-04-26T10:41:17.869Z,4342.50
2019-04-26T10:56:20.186Z,1074.38
2019-04-26T11:11:24.314Z,1884.38
2019-04-26T11:26:24.518Z,3200.62
2019-04-26T11:41:24.745Z,3391.88
2019-04-26T11:56:25.294Z,3414.38
2019-04-26T12:11:33.939Z,3335.62
2019-04-26T12:26:42.280Z,3076.88
2019-04-26T12:41:40.299Z,3172.50
2019-04-26T12:56:40.610Z,2936.25
2019-04-26T13:11:48.772Z,2171.25
2019-04-26T13:26:46.150Z,3161.25
2019-04-26T13:41:46.474Z,2953.12
2019-04-26T13:56:46.682Z,1513.12
2019-04-26T14:11:46.908Z,2491.88
2019-04-26T14:26:47.113Z,2115.00
2019-04-26T14:41:47.594Z,1890.00
2019-04-26T14:56:52.411Z,1310.62
2019-04-26T15:12:00.933Z,511.88
2019-04-26T15:27:01.836Z,770.62
2019-04-26T15:42:03.631Z,759.38
2019-04-26T15:57:06.318Z,421.88
2019-04-26T16:12:07.105Z,315.00
2019-04-26T16:27:07.739Z,236.25
2019-04-26T16:42:07.808Z,146.25
2019-04-26T16:57:11.353Z,163.12
2019-04-26T17:12:15.070Z,151.88
2019-04-26T17:27:16.565Z,112.50
2019-04-26T17:42:16.647Z,73.12
2019-04-26T17:57:31.304Z,39.38
2019-04-26T18:12:21.982Z,16.88
2019-04-26T18:27:23.965Z,5.62
2019-04-26T18:42:24.844Z,0.00
2019-04-26T18:57:27.548Z,0.00
2019-04-26T19:12:27.829Z,0.00
2019-04-26T19:27:29.170Z,0.00
2019-04-26T19:42:30.839Z,0.00
2019-04-26T19:57:38.876Z,0.00
2019-04-26T20:12:38.370Z,0.00
2019-04-26T20:27:38.565Z,0.00
2019-04-26T20:42:39.098Z,0.00
2019-04-26T20:57:42.060Z,0.00
2019-04-26T21:12:47.364Z,0.00
2019-04-26T21:27:51.745Z,0.00
2019-04-26T21:42:55.795Z,0.00
2019-04-26T21:57:57.697Z,0.00
2019-04-26T22:13:01.514Z,0.00
2019-04-26T22:28:03.474Z,0.00
2019-04-26T22:43:05.324Z,0.00
2019-04-26T22:58:05.607Z,0.00
2019-04-26T23:13:07.908Z,0.00
2019-04-26T23:28:08.302Z,0.00
2019-04-26T23:43:09.892Z,0.00
2019-04-26T23:58:13.409Z,0.00
